Time,TemperatureF,DewpointF,PressureIn,WindDirection,WindDirectionDegrees,WindSpeedMPH,WindSpeedGustMPH,Humidity,HourlyPrecipIn,Conditions,Clouds,dailyrainin,SoftwareType,DateUTC
2013-01-19 00:32:00,26.0,25.0,-100.00,South,180,4.0,4.0,99,0.00,,,0.00,,2013-01-19 06:32:00,
2013-01-19 00:43:00,25.0,25.0,-100.00,SSE,165,4.0,5.0,99,0.00,,,0.00,,2013-01-19 06:43:00,
2013-01-19 00:52:00,25.0,25.0,-100.00,South,175,3.0,6.0,99,0.00,,,0.00,,2013-01-19 06:52:00,
2013-01-19 01:12:00,27.0,27.0,-100.00,SSE,165,4.0,5.0,99,0.00,,,0.00,,2013-01-19 07:12:00,
2013-01-19 01:22:00,27.0,27.0,-100.00,SE,130,2.0,3.0,99,0.00,,,0.00,,2013-01-19 07:22:00,
2013-01-19 01:32:00,27.0,27.0,-100.00,ESE,115,3.0,4.0,99,0.00,,,0.00,,2013-01-19 07:32:00,
2013-01-19 01:42:00,27.0,27.0,-100.00,SE,125,3.0,3.0,99,0.00,,,0.00,,2013-01-19 07:42:00,
2013-01-19 01:52:00,27.0,27.0,-100.00,SSE,155,2.0,3.0,99,0.00,,,0.00,,2013-01-19 07:52:00,
2013-01-19 02:42:00,26.0,25.0,-100.00,SSE,165,3.0,4.0,99,0.00,,,0.00,,2013-01-19 08:42:00,
2013-01-19 02:52:00,26.0,25.0,-100.00,South,180,4.0,6.0,99,0.00,,,0.00,,2013-01-19 08:52:00,
2013-01-19 03:02:00,27.0,27.0,-100.00,South,180,6.0,7.0,99,0.00,,,0.00,,2013-01-19 09:02:00,
2013-01-19 03:42:00,27.0,27.0,-100.00,SSW,210,6.0,7.0,99,0.00,,,0.00,,2013-01-19 09:42:00,
2013-01-19 04:02:00,27.0,27.0,-100.00,South,185,4.0,4.0,99,0.00,,,0.00,,2013-01-19 10:02:00,
2013-01-19 04:22:00,27.0,27.0,-100.00,SE,130,3.0,3.0,99,0.00,,,0.00,,2013-01-19 10:22:00,
2013-01-19 04:32:00,27.0,27.0,-100.00,South,170,5.0,6.0,99,0.00,,,0.00,,2013-01-19 10:32:00,
2013-01-19 04:42:00,27.0,27.0,-100.00,SSE,155,4.0,6.0,99,0.00,,,0.00,,2013-01-19 10:42:00,
2013-01-19 04:52:00,27.0,27.0,-100.00,South,185,4.0,7.0,99,0.00,,,0.00,,2013-01-19 10:52:00,
2013-01-19 05:03:00,27.0,27.0,-100.00,SW,215,3.0,7.0,99,0.00,,,0.00,,2013-01-19 11:03:00,
2013-01-19 06:48:00,25.0,25.0,-100.00,SW,225,4.0,5.0,99,0.00,,,0.00,,2013-01-19 12:48:00,
2013-01-19 07:22:00,27.0,27.0,-100.00,SW,235,4.0,7.0,99,0.00,,,0.00,,2013-01-19 13:22:00,
2013-01-19 07:33:00,27.0,27.0,-100.00,SW,215,4.0,6.0,99,0.00,,,0.00,,2013-01-19 13:33:00,
2013-01-19 07:42:00,28.0,27.0,-100.00,WSW,255,6.0,6.0,99,0.00,,,0.00,,2013-01-19 13:42:00,
2013-01-19 07:52:00,28.0,28.0,-100.00,SW,235,6.0,8.0,99,0.00,,,0.00,,2013-01-19 13:52:00,
2013-01-19 08:02:00,29.0,28.0,-100.00,WSW,240,6.0,9.0,99,0.00,,,0.00,,2013-01-19 14:02:00,
2013-01-19 08:33:00,31.0,30.0,-100.00,WSW,255,6.0,9.0,99,0.00,,,0.00,,2013-01-19 14:33:00,
2013-01-19 08:42:00,31.0,30.0,-100.00,WSW,245,7.0,9.0,97,0.00,,,0.00,,2013-01-19 14:42:00,
2013-01-19 08:53:00,32.0,30.0,-100.00,WSW,255,7.0,10.0,95,0.00,,,0.00,,2013-01-19 14:53:00,
2013-01-19 09:03:00,32.0,30.0,-100.00,WSW,255,8.0,12.0,93,0.00,,,0.00,,2013-01-19 15:03:00,
2013-01-19 09:12:00,33.0,30.0,-100.00,WSW,255,9.0,12.0,92,0.00,,,0.00,,2013-01-19 15:12:00,
2013-01-19 09:22:00,33.0,30.0,-100.00,West,265,9.0,14.0,91,0.00,,,0.00,,2013-01-19 15:22:00,
2013-01-19 09:33:00,33.0,30.0,-100.00,West,275,10.0,14.0,89,0.00,,,0.00,,2013-01-19 15:33:00,
2013-01-19 09:43:00,34.0,30.0,-100.00,West,270,10.0,16.0,87,0.00,,,0.00,,2013-01-19 15:43:00,
2013-01-19 09:53:00,34.0,30.0,-100.00,West,280,12.0,16.0,86,0.00,,,0.00,,2013-01-19 15:53:00,
2013-01-19 10:03:00,34.0,30.0,-100.00,West,280,13.0,17.0,85,0.00,,,0.00,,2013-01-19 16:03:00,
2013-01-19 10:12:00,35.0,30.0,-100.00,WNW,285,13.0,17.0,85,0.00,,,0.00,,2013-01-19 16:12:00,
2013-01-19 10:23:00,35.0,32.0,-100.00,WNW,285,12.0,16.0,84,0.00,,,0.00,,2013-01-19 16:23:00,
2013-01-19 10:33:00,36.0,30.0,-100.00,WNW,290,15.0,18.0,83,0.00,,,0.00,,2013-01-19 16:33:00,
2013-01-19 10:43:00,36.0,30.0,-100.00,WNW,300,17.0,22.0,83,0.00,,,0.00,,2013-01-19 16:43:00,
2013-01-19 10:53:00,36.0,30.0,-100.00,NW,305,17.0,22.0,83,0.00,,,0.00,,2013-01-19 16:53:00,
2013-01-19 11:02:00,36.0,32.0,-100.00,WNW,300,18.0,22.0,83,0.00,,,0.00,,2013-01-19 17:02:00,
2013-01-19 11:17:00,36.0,32.0,-100.00,WNW,295,16.0,22.0,82,0.00,,,0.00,,2013-01-19 17:17:00,
2013-01-19 11:28:00,36.0,32.0,-100.00,WNW,295,13.0,20.0,83,0.00,,,0.00,,2013-01-19 17:28:00,
2013-01-19 11:35:00,36.0,30.0,-100.00,WNW,295,14.0,19.0,83,0.00,,,0.00,,2013-01-19 17:35:00,
2013-01-19 11:47:00,35.0,30.0,-100.00,WNW,290,14.0,18.0,84,0.00,,,0.00,,2013-01-19 17:47:00,
2013-01-19 12:09:00,36.0,32.0,-100.00,WNW,295,15.0,17.0,83,0.00,,,0.00,,2013-01-19 18:09:00,
2013-01-19 12:35:00,37.0,32.0,-100.00,WNW,295,21.0,26.0,81,0.00,,,0.00,,2013-01-19 18:35:00,
2013-01-19 12:44:00,37.0,32.0,-100.00,WNW,290,14.0,19.0,82,0.00,,,0.00,,2013-01-19 18:44:00,
2013-01-19 12:54:00,37.0,32.0,-100.00,WNW,295,14.0,21.0,82,0.00,,,0.00,,2013-01-19 18:54:00,
2013-01-19 13:07:00,38.0,32.0,-100.00,WNW,285,15.0,22.0,80,0.00,,,0.00,,2013-01-19 19:07:00,
2013-01-19 13:18:00,38.0,32.0,-100.00,WNW,285,15.0,22.0,80,0.00,,,0.00,,2013-01-19 19:18:00,
2013-01-19 13:38:00,38.0,32.0,-100.00,West,275,17.0,26.0,79,0.00,,,0.00,,2013-01-19 19:38:00,
2013-01-19 13:45:00,37.0,32.0,-100.00,WNW,290,19.0,26.0,79,0.00,,,0.00,,2013-01-19 19:45:00,
2013-01-19 13:54:00,37.0,32.0,-100.00,WNW,295,21.0,29.0,79,0.00,,,0.00,,2013-01-19 19:54:00,
2013-01-19 14:09:00,36.0,30.0,-100.00,WNW,300,32.0,41.0,81,0.00,,,0.00,,2013-01-19 20:09:00,
2013-01-19 14:17:00,32.0,28.0,-100.00,NW,320,35.0,43.0,86,0.00,,,0.00,,2013-01-19 20:17:00,
2013-01-19 14:24:00,30.0,27.0,-100.00,WNW,300,32.0,42.0,86,0.00,,,0.00,,2013-01-19 20:24:00,
2013-01-19 14:37:00,29.0,25.0,-100.00,WNW,300,29.0,35.0,83,0.00,,,0.00,,2013-01-19 20:37:00,
2013-01-19 14:45:00,28.0,23.0,-100.00,NW,310,30.0,40.0,81,0.00,,,0.00,,2013-01-19 20:45:00,
2013-01-19 14:54:00,26.0,21.0,-100.00,NW,310,32.0,47.0,80,0.00,,,0.00,,2013-01-19 20:54:00,
2013-01-19 15:06:00,24.0,18.0,-100.00,WNW,300,37.0,42.0,77,0.00,,,0.00,,2013-01-19 21:06:00,
2013-01-19 15:14:00,23.0,16.0,-100.00,NW,305,41.0,47.0,75,0.00,,,0.00,,2013-01-19 21:14:00,
2013-01-19 15:25:00,22.0,14.0,-100.00,WNW,290,36.0,49.0,72,0.00,,,0.00,,2013-01-19 21:25:00,
2013-01-19 15:48:00,18.0,10.0,-100.00,WNW,300,39.0,47.0,71,0.00,,,0.00,,2013-01-19 21:48:00,
2013-01-19 15:56:00,18.0,10.0,-100.00,WNW,300,34.0,57.0,70,0.00,,,0.00,,2013-01-19 21:56:00,
2013-01-19 16:12:00,18.0,9.0,-100.00,WNW,300,32.0,44.0,69,0.00,,,0.00,,2013-01-19 22:12:00,
2013-01-19 16:25:00,17.0,9.0,-100.00,WNW,295,38.0,47.0,68,0.00,,,0.00,,2013-01-19 22:25:00,
2013-01-19 16:34:00,16.0,7.0,-100.00,NW,305,38.0,49.0,67,0.00,,,0.00,,2013-01-19 22:34:00,
2013-01-19 16:54:00,14.0,5.0,-100.00,WNW,295,42.0,55.0,65,0.00,,,0.00,,2013-01-19 22:54:00,
2013-01-19 17:12:00,13.0,3.0,-100.00,WNW,300,39.0,50.0,63,0.00,,,0.00,,2013-01-19 23:12:00,
2013-01-19 17:25:00,12.0,1.0,-100.00,WNW,300,35.0,51.0,63,0.00,,,0.00,,2013-01-19 23:25:00,
2013-01-19 17:34:00,11.0,1.0,-100.00,NW,305,36.0,48.0,64,0.00,,,0.00,,2013-01-19 23:34:00,
2013-01-19 17:45:00,11.0,1.0,-100.00,WNW,300,31.0,47.0,66,0.00,,,0.00,,2013-01-19 23:45:00,
2013-01-19 17:59:00,10.0,1.0,-100.00,NW,305,34.0,43.0,65,0.00,,,0.00,,2013-01-19 23:59:00,
2013-01-19 18:08:00,10.0,1.0,-100.00,NW,305,37.0,42.0,66,0.00,,,0.00,,2013-01-20 00:08:00,
2013-01-19 18:25:00,9.0,1.0,-100.00,NW,305,31.0,42.0,71,0.00,,,0.00,,2013-01-20 00:25:00,
2013-01-19 18:35:00,9.0,1.0,-100.00,NW,310,27.0,37.0,70,0.00,,,0.00,,2013-01-20 00:35:00,
2013-01-19 18:45:00,8.0,0.0,-100.00,WNW,300,26.0,34.0,69,0.00,,,0.00,,2013-01-20 00:45:00,
2013-01-19 18:53:00,7.0,0.0,-100.00,WNW,295,29.0,38.0,69,0.00,,,0.00,,2013-01-20 00:53:00,
2013-01-19 19:03:00,7.0,0.0,-100.00,WNW,300,25.0,35.0,70,0.00,,,0.00,,2013-01-20 01:03:00,
2013-01-19 19:18:00,7.0,0.0,-100.00,NW,305,24.0,35.0,71,0.00,,,0.00,,2013-01-20 01:18:00,
2013-01-19 19:25:00,6.0,0.0,-100.00,WNW,300,27.0,33.0,72,0.00,,,0.00,,2013-01-20 01:25:00,
2013-01-19 19:35:00,6.0,0.0,-100.00,NW,310,26.0,34.0,74,0.00,,,0.00,,2013-01-20 01:35:00,
2013-01-19 19:45:00,6.0,0.0,-100.00,NW,305,23.0,34.0,75,0.00,,,0.00,,2013-01-20 01:45:00,
2013-01-19 19:58:00,5.0,-2.0,-100.00,WNW,300,26.0,32.0,73,0.00,,,0.00,,2013-01-20 01:58:00,
2013-01-19 20:07:00,5.0,-2.0,-100.00,NW,310,27.0,38.0,71,0.00,,,0.00,,2013-01-20 02:07:00,
2013-01-19 20:14:00,5.0,-2.0,-100.00,NW,310,24.0,28.0,73,0.00,,,0.00,,2013-01-20 02:14:00,
2013-01-19 20:25:00,4.0,-2.0,-100.00,WNW,300,27.0,34.0,72,0.00,,,0.00,,2013-01-20 02:25:00,
2013-01-19 20:44:00,4.0,-4.0,-100.00,NW,320,22.0,34.0,72,0.00,,,0.00,,2013-01-20 02:44:00,
2013-01-19 20:55:00,3.0,-4.0,-100.00,NW,305,19.0,27.0,73,0.00,,,0.00,,2013-01-20 02:55:00,
2013-01-19 21:07:00,3.0,-4.0,-100.00,NW,315,19.0,32.0,72,0.00,,,0.00,,2013-01-20 03:07:00,
2013-01-19 21:14:00,3.0,-4.0,-100.00,NW,320,21.0,27.0,72,0.00,,,0.00,,2013-01-20 03:14:00,
2013-01-19 21:24:00,3.0,-4.0,-100.00,NW,325,21.0,32.0,72,0.00,,,0.00,,2013-01-20 03:24:00,
2013-01-19 21:37:00,3.0,-4.0,-100.00,NW,310,17.0,24.0,73,0.00,,,0.00,,2013-01-20 03:37:00,
2013-01-19 21:45:00,3.0,-4.0,-100.00,NW,305,22.0,26.0,74,0.00,,,0.00,,2013-01-20 03:45:00,
2013-01-19 21:54:00,2.0,-4.0,-100.00,NW,305,20.0,26.0,74,0.00,,,0.00,,2013-01-20 03:54:00,
2013-01-19 22:04:00,2.0,-4.0,-100.00,NW,310,23.0,27.0,74,0.00,,,0.00,,2013-01-20 04:04:00,
2013-01-19 22:14:00,2.0,-4.0,-100.00,NW,310,19.0,22.0,75,0.00,,,0.00,,2013-01-20 04:14:00,
2013-01-19 22:24:00,2.0,-4.0,-100.00,WNW,300,21.0,24.0,75,0.00,,,0.00,,2013-01-20 04:24:00,
2013-01-19 22:35:00,2.0,-4.0,-100.00,WNW,300,14.0,22.0,75,0.00,,,0.00,,2013-01-20 04:35:00,
2013-01-19 22:44:00,2.0,-4.0,-100.00,NW,305,15.0,22.0,76,0.00,,,0.00,,2013-01-20 04:44:00,
2013-01-19 22:54:00,2.0,-4.0,-100.00,NW,310,16.0,22.0,76,0.00,,,0.00,,2013-01-20 04:54:00,
2013-01-19 23:04:00,1.0,-4.0,-100.00,NW,320,14.0,21.0,76,0.00,,,0.00,,2013-01-20 05:04:00,
2013-01-19 23:12:00,1.0,-4.0,-100.00,NW,320,15.0,19.0,76,0.00,,,0.00,,2013-01-20 05:12:00,
2013-01-19 23:22:00,1.0,-4.0,-100.00,NW,315,13.0,18.0,76,0.00,,,0.00,,2013-01-20 05:22:00,
2013-01-19 23:32:00,1.0,-4.0,-100.00,NW,320,12.0,21.0,77,0.00,,,0.00,,2013-01-20 05:32:00,
2013-01-19 23:42:00,1.0,-4.0,-100.00,NW,310,15.0,19.0,78,0.00,,,0.00,,2013-01-20 05:42:00,
2013-01-19 23:53:00,1.0,-4.0,-100.00,NW,305,17.0,22.0,79,0.00,,,0.00,,2013-01-20 05:53:00,